Positano Jet — IFTU — position and weather

sailwx.info

Track history (hours):
 
Tides and Currents Weather Stations Pressure Air Temp Water Temp Dewpoint Dewpoint Depression Visibility Wind Speed Wind Dir Waves Ship Positions

Positano Jet

Last reported at 2017-Sep-26 16:33 UTC. Time now 2017-Sep-26 21:54 UTC.
Position N 40°37' E 014°28'.

Length 23 m; draft 2 m.

Type: Ship. MMSI: 247160800.

Date/timePositionNaut miles runAvg speedWind from/ knotsBaromVisibWave heightAir tempDewpointWater temp
2017-Sep-26 16:33N 40°37' E 014°28'123.1
2017-Sep-26 16:30N 40°36' E 014°27'5 4.3
2017-Sep-26 15:24N 40°34' E 014°22'6 3.7
2017-Sep-26 13:45N 40°37' E 014°29'622.9
2017-Sep-26 13:30N 40°34' E 014°22'0 0.3
2017-Sep-26 12:23N 40°34' E 014°22'6 2.3
2017-Sep-26 09:49N 40°37' E 014°29'6 6.1
2017-Sep-26 08:49N 40°34' E 014°22'6 0.4
2017-Sep-25 16:47N 40°37' E 014°29'2 6.9
2017-Sep-25 16:30N 40°36' E 014°27'5 4.0
2017-Sep-25 15:23N 40°34' E 014°22'6 3.5
2017-Sep-25 13:44N 40°37' E 014°29'522.7
2017-Sep-25 13:30N 40°34' E 014°22'0 0.2
2017-Sep-25 12:22N 40°34' E 014°22'6 2.3
2017-Sep-25 09:55N 40°37' E 014°29'6 5.2
2017-Sep-25 08:50N 40°34' E 014°22'7 4.4
2017-Sep-25 07:16N 40°37' E 014°30'0 0.0
2017-Sep-24 16:49N 40°36' E 014°31'3 8.1
2017-Sep-24 16:30N 40°36' E 014°27'5 4.3
2017-Sep-24 15:23N 40°34' E 014°22'6 3.9
2017-Sep-24 13:44N 40°37' E 014°29'522.5
2017-Sep-24 13:30N 40°34' E 014°23'1 0.8
2017-Sep-24 12:21N 40°34' E 014°22'5 2.1
2017-Sep-24 09:49N 40°37' E 014°28'5 5.4
2017-Sep-24 08:50N 40°34' E 014°22'  
2017-Sep-21 16:35N 40°37' E 014°29'223.0
2017-Sep-21 16:30N 40°36' E 014°27'4 3.7
2017-Sep-21 15:26N 40°34' E 014°22'6 3.3
2017-Sep-21 13:46N 40°37' E 014°28'5 4.1
2017-Sep-21 12:25N 40°34' E 014°22'6 2.3
2017-Sep-21 09:58N 40°37' E 014°28'6 5.1
2017-Sep-21 08:52N 40°34' E 014°22'5 0.3
2017-Sep-20 13:55N 40°37' E 014°28'3 0.6
2017-Sep-20 08:46N 40°36' E 014°24'3 0.2
2017-Sep-19 13:42N 40°37' E 014°28'7 5.4
2017-Sep-19 12:21N 40°36' E 014°19'513.2
2017-Sep-19 12:00N 40°38' E 014°24'0 0.1
2017-Sep-19 11:30N 40°38' E 014°24'0 0.0
2017-Sep-19 11:00N 40°38' E 014°24'0 0.0
2017-Sep-19 10:30N 40°38' E 014°24'0 0.0
2017-Sep-19 10:00N 40°38' E 014°24'2 4.4
2017-Sep-19 09:31N 40°39' E 014°21'4 6.4
2017-Sep-19 08:49N 40°34' E 014°22'6 0.4
2017-Sep-18 16:36N 40°37' E 014°29'222.9
2017-Sep-18 16:30N 40°36' E 014°27'4 3.3
2017-Sep-18 15:22N 40°34' E 014°22'6 3.4
2017-Sep-18 13:44N 40°37' E 014°29'522.5
2017-Sep-18 13:30N 40°34' E 014°22'6 7.2
2017-Sep-18 12:40N 40°33' E 014°14'317.6
2017-Sep-18 12:30N 40°34' E 014°18'916.5
2017-Sep-18 11:57N 40°38' E 014°29'0 0.6
2017-Sep-18 11:30N 40°37' E 014°29'0 0.0
2017-Sep-18 11:00N 40°37' E 014°29'0 0.1
2017-Sep-18 10:29N 40°37' E 014°29'0 0.5
2017-Sep-18 09:57N 40°38' E 014°29'6 5.6
2017-Sep-18 08:52N 40°35' E 014°22'6 0.4
2017-Sep-17 16:49N 40°37' E 014°30'2 5.9
2017-Sep-17 16:30N 40°37' E 014°28'4 4.1
2017-Sep-17 15:25N 40°35' E 014°22'5 3.0
2017-Sep-17 13:44N 40°37' E 014°28'5 3.5
2017-Sep-17 12:17N 40°35' E 014°22'6 2.6
2017-Sep-17 10:00N 40°37' E 014°29'6 4.9
2017-Sep-17 08:47N 40°35' E 014°22'5 0.3
2017-Sep-16 16:35N 40°37' E 014°28'  
Track history (hours):
 
Tides and Currents Weather Stations Pressure Air Temp Water Temp Dewpoint Dewpoint Depression Visibility Wind Speed Wind Dir Waves Ship Positions

Positano Jet

Last reported at 2017-Sep-26 16:33 UTC. Time now 2017-Sep-26 21:54 UTC.
Position N 40°37' E 014°28'.

Length 23 m; draft 2 m.

Type: Ship. MMSI: 247160800.

Date/timePositionNaut miles runAvg speedWind from/ knotsBaromVisibWave heightAir tempDewpointWater temp
2017-Sep-26 16:33N 40°37' E 014°28'123.1
2017-Sep-26 16:30N 40°36' E 014°27'5 4.3
2017-Sep-26 15:24N 40°34' E 014°22'6 3.7
2017-Sep-26 13:45N 40°37' E 014°29'622.9
2017-Sep-26 13:30N 40°34' E 014°22'0 0.3
2017-Sep-26 12:23N 40°34' E 014°22'6 2.3
2017-Sep-26 09:49N 40°37' E 014°29'6 6.1
2017-Sep-26 08:49N 40°34' E 014°22'6 0.4
2017-Sep-25 16:47N 40°37' E 014°29'2 6.9
2017-Sep-25 16:30N 40°36' E 014°27'5 4.0
2017-Sep-25 15:23N 40°34' E 014°22'6 3.5
2017-Sep-25 13:44N 40°37' E 014°29'522.7
2017-Sep-25 13:30N 40°34' E 014°22'0 0.2
2017-Sep-25 12:22N 40°34' E 014°22'6 2.3
2017-Sep-25 09:55N 40°37' E 014°29'6 5.2
2017-Sep-25 08:50N 40°34' E 014°22'7 4.4
2017-Sep-25 07:16N 40°37' E 014°30'0 0.0
2017-Sep-24 16:49N 40°36' E 014°31'3 8.1
2017-Sep-24 16:30N 40°36' E 014°27'5 4.3
2017-Sep-24 15:23N 40°34' E 014°22'6 3.9
2017-Sep-24 13:44N 40°37' E 014°29'522.5
2017-Sep-24 13:30N 40°34' E 014°23'1 0.8
2017-Sep-24 12:21N 40°34' E 014°22'5 2.1
2017-Sep-24 09:49N 40°37' E 014°28'5 5.4
2017-Sep-24 08:50N 40°34' E 014°22'  
2017-Sep-21 16:35N 40°37' E 014°29'223.0
2017-Sep-21 16:30N 40°36' E 014°27'4 3.7
2017-Sep-21 15:26N 40°34' E 014°22'6 3.3
2017-Sep-21 13:46N 40°37' E 014°28'5 4.1
2017-Sep-21 12:25N 40°34' E 014°22'6 2.3
2017-Sep-21 09:58N 40°37' E 014°28'6 5.1
2017-Sep-21 08:52N 40°34' E 014°22'5 0.3
2017-Sep-20 13:55N 40°37' E 014°28'3 0.6
2017-Sep-20 08:46N 40°36' E 014°24'3 0.2
2017-Sep-19 13:42N 40°37' E 014°28'7 5.4
2017-Sep-19 12:21N 40°36' E 014°19'513.2
2017-Sep-19 12:00N 40°38' E 014°24'0 0.1
2017-Sep-19 11:30N 40°38' E 014°24'0 0.0
2017-Sep-19 11:00N 40°38' E 014°24'0 0.0
2017-Sep-19 10:30N 40°38' E 014°24'0 0.0
2017-Sep-19 10:00N 40°38' E 014°24'2 4.4
2017-Sep-19 09:31N 40°39' E 014°21'4 6.4
2017-Sep-19 08:49N 40°34' E 014°22'6 0.4
2017-Sep-18 16:36N 40°37' E 014°29'222.9
2017-Sep-18 16:30N 40°36' E 014°27'4 3.3
2017-Sep-18 15:22N 40°34' E 014°22'6 3.4
2017-Sep-18 13:44N 40°37' E 014°29'522.5
2017-Sep-18 13:30N 40°34' E 014°22'6 7.2
2017-Sep-18 12:40N 40°33' E 014°14'317.6
2017-Sep-18 12:30N 40°34' E 014°18'916.5
2017-Sep-18 11:57N 40°38' E 014°29'0 0.6
2017-Sep-18 11:30N 40°37' E 014°29'0 0.0
2017-Sep-18 11:00N 40°37' E 014°29'0 0.1
2017-Sep-18 10:29N 40°37' E 014°29'0 0.5
2017-Sep-18 09:57N 40°38' E 014°29'6 5.6
2017-Sep-18 08:52N 40°35' E 014°22'6 0.4
2017-Sep-17 16:49N 40°37' E 014°30'2 5.9
2017-Sep-17 16:30N 40°37' E 014°28'4 4.1
2017-Sep-17 15:25N 40°35' E 014°22'5 3.0
2017-Sep-17 13:44N 40°37' E 014°28'5 3.5
2017-Sep-17 12:17N 40°35' E 014°22'6 2.6
2017-Sep-17 10:00N 40°37' E 014°29'6 4.9
2017-Sep-17 08:47N 40°35' E 014°22'5 0.3
2017-Sep-16 16:35N 40°37' E 014°28'  

Dump ship's entire track history